createdAt,value
2022-12-05T00:00:08.627Z,4.60
2022-12-05T00:04:17.728Z,4.70
2022-12-05T00:08:28.324Z,4.70
2022-12-05T00:12:37.506Z,4.80
2022-12-05T00:16:47.171Z,4.80
2022-12-05T00:20:56.349Z,4.80
2022-12-05T00:25:08.508Z,4.70
2022-12-05T00:29:17.668Z,4.70
2022-12-05T00:33:26.869Z,4.70
2022-12-05T00:37:35.988Z,4.80
2022-12-05T00:41:47.050Z,4.80
2022-12-05T00:45:56.187Z,4.80
2022-12-05T00:50:06.407Z,4.70
2022-12-05T00:54:17.167Z,4.80
2022-12-05T00:58:28.809Z,4.90
2022-12-05T01:02:38.075Z,4.90
2022-12-05T01:06:47.503Z,4.80
2022-12-05T01:10:57.652Z,4.80
2022-12-05T01:15:09.995Z,4.80
2022-12-05T01:19:21.029Z,4.80
2022-12-05T01:23:30.229Z,4.70
2022-12-05T01:27:39.547Z,4.60
2022-12-05T01:31:50.604Z,4.50
2022-12-05T01:35:59.784Z,4.30
2022-12-05T01:40:10.427Z,4.20
2022-12-05T01:44:57.069Z,4.10
2022-12-05T01:49:19.109Z,3.80
2022-12-05T01:53:29.105Z,3.60
2022-12-05T01:57:38.929Z,3.50
2022-12-05T02:01:48.179Z,3.50
2022-12-05T02:06:00.732Z,3.60
2022-12-05T02:10:11.169Z,3.50
2022-12-05T02:14:32.811Z,3.20
2022-12-05T02:18:54.749Z,3.10
2022-12-05T02:23:33.127Z,3.10
2022-12-05T02:28:02.129Z,3.20
2022-12-05T02:32:19.807Z,3.20
2022-12-05T02:36:38.589Z,3.10
2022-12-05T02:40:56.670Z,3.10
2022-12-05T02:45:10.258Z,3.00
2022-12-05T02:49:24.888Z,3.00
2022-12-05T02:53:36.989Z,2.70
2022-12-05T02:57:50.933Z,2.60
2022-12-05T03:02:00.164Z,2.70
2022-12-05T03:06:15.507Z,2.70
2022-12-05T03:10:27.906Z,2.60
2022-12-05T03:14:40.708Z,2.20
2022-12-05T03:18:53.424Z,2.00
2022-12-05T03:23:09.671Z,2.10
2022-12-05T03:27:27.912Z,2.20
2022-12-05T03:31:44.230Z,2.20
2022-12-05T03:36:02.832Z,2.20
2022-12-05T03:40:19.327Z,2.10
2022-12-05T03:44:35.587Z,2.20
2022-12-05T03:48:55.107Z,2.20
2022-12-05T03:53:19.746Z,2.20
2022-12-05T03:57:36.330Z,2.10
2022-12-05T04:01:47.626Z,2.00
2022-12-05T04:05:59.629Z,2.10
2022-12-05T04:10:14.628Z,2.20
2022-12-05T04:14:34.306Z,2.40
2022-12-05T04:18:48.452Z,2.40
2022-12-05T04:22:57.646Z,2.30
2022-12-05T04:27:17.192Z,2.30
2022-12-05T04:31:34.606Z,2.30
2022-12-05T04:35:48.126Z,2.20
2022-12-05T04:40:01.149Z,2.20
2022-12-05T04:44:13.247Z,2.20
2022-12-05T04:48:26.986Z,2.20
2022-12-05T04:52:36.787Z,2.10
2022-12-05T04:56:50.187Z,1.90
2022-12-05T05:01:05.249Z,1.90
2022-12-05T05:05:19.711Z,2.00
2022-12-05T05:09:28.843Z,2.10
2022-12-05T05:13:38.068Z,2.10
2022-12-05T05:17:47.291Z,2.20
2022-12-05T05:21:58.129Z,2.30
2022-12-05T05:26:07.528Z,2.40
2022-12-05T05:30:17.124Z,2.60
2022-12-05T05:34:28.829Z,2.80
2022-12-05T05:38:40.326Z,2.90
2022-12-05T05:42:51.549Z,3.00
2022-12-05T05:47:00.723Z,3.10
2022-12-05T05:51:12.167Z,3.30
2022-12-05T05:55:23.247Z,3.30
2022-12-05T05:59:32.387Z,3.30
2022-12-05T06:03:42.170Z,3.30
2022-12-05T06:07:51.584Z,3.40
2022-12-05T06:12:02.768Z,3.40
2022-12-05T06:16:13.960Z,3.40
2022-12-05T06:20:23.152Z,3.40
2022-12-05T06:24:33.309Z,3.60
2022-12-05T06:28:44.768Z,3.60
2022-12-05T06:32:54.010Z,3.50
2022-12-05T06:37:03.627Z,3.50
2022-12-05T06:41:15.435Z,3.60
2022-12-05T06:45:26.256Z,3.70
2022-12-05T06:49:38.055Z,3.90
2022-12-05T06:53:47.512Z,3.80
2022-12-05T06:57:56.590Z,3.80
2022-12-05T07:02:08.667Z,3.90
2022-12-05T07:06:18.847Z,4.00
2022-12-05T07:10:28.006Z,4.00
2022-12-05T07:14:47.490Z,4.00
2022-12-05T07:19:00.045Z,4.10
2022-12-05T07:23:09.206Z,4.20
2022-12-05T07:27:23.315Z,4.20
2022-12-05T07:31:37.269Z,4.20
2022-12-05T07:35:47.969Z,4.10
2022-12-05T07:39:57.148Z,4.10
2022-12-05T07:44:06.990Z,4.20
2022-12-05T07:48:18.765Z,4.20
2022-12-05T07:52:30.189Z,4.20
2022-12-05T07:56:43.300Z,4.10
2022-12-05T08:00:56.603Z,4.10
2022-12-05T08:05:06.265Z,4.10
2022-12-05T08:09:16.927Z,4.20
2022-12-05T08:13:26.007Z,4.20
2022-12-05T08:17:35.148Z,4.20
2022-12-05T08:21:44.609Z,4.10
2022-12-05T08:25:55.109Z,4.20
2022-12-05T08:30:04.345Z,4.20
2022-12-05T08:34:15.166Z,4.30
2022-12-05T08:38:24.365Z,4.20
2022-12-05T08:42:34.953Z,4.30
2022-12-05T08:46:46.021Z,4.40
2022-12-05T08:50:55.186Z,4.40
2022-12-05T08:55:04.604Z,4.40
2022-12-05T08:59:16.948Z,4.50
2022-12-05T09:03:26.447Z,4.60
2022-12-05T09:07:35.894Z,4.70
2022-12-05T09:11:51.154Z,4.90
2022-12-05T09:16:06.270Z,4.90
2022-12-05T09:20:15.848Z,5.00
2022-12-05T09:24:25.004Z,5.10
2022-12-05T09:28:34.969Z,5.20
2022-12-05T09:32:46.467Z,5.30
2022-12-05T09:37:10.237Z,5.30
2022-12-05T09:41:46.185Z,5.40
2022-12-05T09:46:03.645Z,5.50
2022-12-05T09:50:23.369Z,5.70
2022-12-05T09:54:33.546Z,5.70
2022-12-05T09:58:45.197Z,5.60
2022-12-05T10:03:04.089Z,5.70
2022-12-05T10:07:23.027Z,5.80
2022-12-05T10:11:41.009Z,5.90
2022-12-05T10:15:57.195Z,6.10
2022-12-05T10:20:13.888Z,5.90
2022-12-05T10:24:31.712Z,6.00
2022-12-05T10:28:48.706Z,6.20
2022-12-05T10:33:01.014Z,6.50
2022-12-05T10:37:17.226Z,6.80
2022-12-05T10:41:28.964Z,7.00
2022-12-05T10:45:43.486Z,7.10
2022-12-05T10:49:53.330Z,7.10
2022-12-05T10:54:03.427Z,7.30
2022-12-05T10:58:17.802Z,7.30
2022-12-05T11:02:30.748Z,7.30
2022-12-05T11:06:40.486Z,7.30
2022-12-05T11:10:49.947Z,7.30
2022-12-05T11:15:04.627Z,7.30
2022-12-05T11:19:27.149Z,7.30
2022-12-05T11:23:36.266Z,7.30
2022-12-05T11:27:45.509Z,7.50
2022-12-05T11:31:56.309Z,7.60
2022-12-05T11:36:13.527Z,7.70
2022-12-05T11:40:36.532Z,7.90
2022-12-05T11:45:17.948Z,8.10
2022-12-05T11:49:47.010Z,7.90
2022-12-05T11:55:02.896Z,8.00
2022-12-05T11:59:11.210Z,8.30
2022-12-05T12:03:59.069Z,8.20
2022-12-05T12:08:21.320Z,7.70
2022-12-05T12:12:38.486Z,7.50
2022-12-05T12:16:58.311Z,7.40
2022-12-05T12:21:19.232Z,7.50
2022-12-05T12:25:40.010Z,7.80
2022-12-05T12:30:02.249Z,7.90
2022-12-05T12:34:33.168Z,8.00
2022-12-05T12:39:12.928Z,8.20
2022-12-05T12:43:55.009Z,8.30
2022-12-05T12:48:20.468Z,8.40
2022-12-05T12:52:36.223Z,8.40
2022-12-05T12:56:57.886Z,8.50
2022-12-05T13:01:18.774Z,8.50
2022-12-05T13:05:35.208Z,8.50
2022-12-05T13:09:51.865Z,8.60
2022-12-05T13:14:03.524Z,8.60
2022-12-05T13:18:18.266Z,8.50
2022-12-05T13:22:30.144Z,8.60
2022-12-05T13:26:49.504Z,8.60
2022-12-05T13:31:01.982Z,8.60
2022-12-05T13:35:14.088Z,8.60
2022-12-05T13:39:41.370Z,8.70
2022-12-05T13:44:06.252Z,8.70
2022-12-05T13:48:22.667Z,8.60
2022-12-05T13:52:41.989Z,8.60
2022-12-05T13:56:54.128Z,8.50
2022-12-05T14:01:42.396Z,8.50
2022-12-05T14:05:55.690Z,8.20
2022-12-05T14:10:07.639Z,8.20
2022-12-05T14:14:51.548Z,8.00
2022-12-05T14:19:06.767Z,8.00
2022-12-05T14:23:45.688Z,8.10
2022-12-05T14:28:00.849Z,8.20
2022-12-05T14:32:21.226Z,8.20
2022-12-05T14:36:32.005Z,8.00
2022-12-05T14:40:43.668Z,8.00
2022-12-05T14:44:57.047Z,7.90
2022-12-05T14:49:38.599Z,8.00
2022-12-05T14:53:51.764Z,8.00
2022-12-05T14:58:00.906Z,7.80
2022-12-05T15:02:21.808Z,7.70
2022-12-05T15:06:31.367Z,7.50
2022-12-05T15:10:41.508Z,7.30
2022-12-05T15:15:01.379Z,7.20
2022-12-05T15:19:19.506Z,7.20
2022-12-05T15:23:42.978Z,7.20
2022-12-05T15:27:57.428Z,7.20
2022-12-05T15:32:17.211Z,7.10
2022-12-05T15:36:34.027Z,6.90
2022-12-05T15:40:48.090Z,6.80
2022-12-05T15:45:17.288Z,6.80
2022-12-05T15:49:28.466Z,6.70
2022-12-05T15:53:44.887Z,6.60
2022-12-05T15:57:59.584Z,6.40
2022-12-05T16:02:17.142Z,6.30
2022-12-05T16:06:30.967Z,6.20
2022-12-05T16:10:42.045Z,6.20
2022-12-05T16:15:01.361Z,6.10
2022-12-05T16:19:17.666Z,6.00
2022-12-05T16:23:30.344Z,6.00
2022-12-05T16:27:41.251Z,5.70
2022-12-05T16:31:57.128Z,5.60
2022-12-05T16:36:15.947Z,5.50
2022-12-05T16:40:25.385Z,5.50
2022-12-05T16:45:03.827Z,5.20
2022-12-05T16:49:23.306Z,5.00
2022-12-05T16:53:34.586Z,4.80
2022-12-05T16:57:43.746Z,5.00
2022-12-05T17:01:54.516Z,5.00
2022-12-05T17:06:03.970Z,4.80
2022-12-05T17:10:13.023Z,4.90
2022-12-05T17:14:23.112Z,5.00
2022-12-05T17:18:34.565Z,4.90
2022-12-05T17:22:43.726Z,5.00
2022-12-05T17:26:52.784Z,4.90
2022-12-05T17:31:01.993Z,4.80
2022-12-05T17:35:18.007Z,4.80
2022-12-05T17:39:28.752Z,4.90
2022-12-05T17:43:38.672Z,4.90
2022-12-05T17:47:47.769Z,4.90
2022-12-05T17:52:20.910Z,4.80
2022-12-05T17:56:29.768Z,4.80
2022-12-05T18:00:39.379Z,4.80
2022-12-05T18:04:48.588Z,4.80
2022-12-05T18:08:59.245Z,4.70
2022-12-05T18:13:08.367Z,4.70
2022-12-05T18:17:17.530Z,4.60
2022-12-05T18:21:27.127Z,4.50
2022-12-05T18:25:37.769Z,4.50
2022-12-05T18:29:49.145Z,4.60
2022-12-05T18:33:58.247Z,4.60
2022-12-05T18:38:07.444Z,4.50
2022-12-05T18:42:18.104Z,4.40
2022-12-05T18:46:27.268Z,4.40
2022-12-05T18:50:36.309Z,4.40
2022-12-05T18:54:50.671Z,4.40
2022-12-05T18:59:10.108Z,4.40
2022-12-05T19:03:20.267Z,4.30
2022-12-05T19:07:29.366Z,4.10
2022-12-05T19:11:41.710Z,4.10
2022-12-05T19:16:02.114Z,4.00
2022-12-05T19:20:12.169Z,4.00
2022-12-05T19:24:21.364Z,3.80
2022-12-05T19:28:30.686Z,3.70
2022-12-05T19:32:41.390Z,3.60
2022-12-05T19:36:50.533Z,3.60
2022-12-05T19:40:59.591Z,3.60
2022-12-05T19:45:16.393Z,3.60
2022-12-05T19:49:28.546Z,3.50
2022-12-05T19:53:41.430Z,3.40
2022-12-05T19:57:50.689Z,3.40
2022-12-05T20:01:59.802Z,3.50
2022-12-05T20:06:11.409Z,3.50
2022-12-05T20:10:20.847Z,3.50
2022-12-05T20:14:30.047Z,3.20
2022-12-05T20:18:40.249Z,3.20
2022-12-05T20:22:50.827Z,3.20
2022-12-05T20:27:01.937Z,3.30
2022-12-05T20:31:13.327Z,3.20
2022-12-05T20:35:24.232Z,3.10
2022-12-05T20:39:35.678Z,3.00
2022-12-05T20:43:45.666Z,3.00
2022-12-05T20:47:54.847Z,2.90
2022-12-05T20:52:03.966Z,3.00
2022-12-05T20:56:47.430Z,3.00
2022-12-05T21:01:00.707Z,2.90
2022-12-05T21:05:13.505Z,2.80
2022-12-05T21:09:29.690Z,2.90
2022-12-05T21:13:41.091Z,2.90
2022-12-05T21:17:50.388Z,2.90
2022-12-05T21:21:59.648Z,2.90
2022-12-05T21:26:12.467Z,2.80
2022-12-05T21:30:23.466Z,2.80
2022-12-05T21:34:32.787Z,2.80
2022-12-05T21:38:42.664Z,2.80
2022-12-05T21:42:52.007Z,2.70
2022-12-05T21:47:02.904Z,2.60
2022-12-05T21:51:14.006Z,2.60
2022-12-05T21:55:23.327Z,2.60
2022-12-05T21:59:34.368Z,2.60
2022-12-05T22:03:45.401Z,2.60
2022-12-05T22:07:54.576Z,2.50
2022-12-05T22:12:03.788Z,2.30
2022-12-05T22:16:13.952Z,2.30
2022-12-05T22:20:25.389Z,2.30
2022-12-05T22:24:34.470Z,2.30
2022-12-05T22:28:43.551Z,2.40
2022-12-05T22:32:55.307Z,2.30
2022-12-05T22:37:06.327Z,2.30
2022-12-05T22:41:17.324Z,2.40
2022-12-05T22:45:26.566Z,2.30
2022-12-05T22:49:35.645Z,2.30
2022-12-05T22:53:46.767Z,2.30
2022-12-05T22:57:55.864Z,2.30
2022-12-05T23:02:04.901Z,2.40
2022-12-05T23:06:15.623Z,2.40
2022-12-05T23:10:26.347Z,2.30
2022-12-05T23:14:35.467Z,2.30
2022-12-05T23:18:48.352Z,2.40
2022-12-05T23:22:57.605Z,2.50
2022-12-05T23:27:08.309Z,2.50
2022-12-05T23:31:18.260Z,2.60
2022-12-05T23:35:27.568Z,2.60
2022-12-05T23:39:36.688Z,2.80
2022-12-05T23:43:47.883Z,2.90
2022-12-05T23:48:01.741Z,3.00
2022-12-05T23:52:13.507Z,3.00
2022-12-05T23:56:25.596Z,3.20
